createdAt,value
2019-03-20T00:00:25.067Z,99.99
2019-03-20T00:01:25.060Z,99.99
2019-03-20T00:02:25.051Z,99.99
2019-03-20T00:03:25.046Z,99.99
2019-03-20T00:04:25.046Z,99.99
2019-03-20T00:05:25.020Z,99.99
2019-03-20T00:06:25.013Z,99.99
2019-03-20T00:07:25.006Z,99.99
2019-03-20T00:08:24.989Z,99.99
2019-03-20T00:09:24.989Z,99.99
2019-03-20T00:10:24.973Z,99.99
2019-03-20T00:11:24.966Z,99.99
2019-03-20T00:12:24.956Z,99.99
2019-03-20T00:13:24.942Z,99.99
2019-03-20T00:14:24.935Z,99.99
2019-03-20T00:15:24.920Z,99.99
2019-03-20T00:16:24.916Z,99.99
2019-03-20T00:17:24.908Z,99.99
2019-03-20T00:18:24.907Z,99.99
2019-03-20T00:19:24.901Z,99.99
2019-03-20T00:20:24.877Z,99.99
2019-03-20T00:21:24.865Z,99.99
2019-03-20T00:22:24.860Z,99.99
2019-03-20T00:23:24.846Z,99.99
2019-03-20T00:24:24.840Z,99.99
2019-03-20T00:25:24.832Z,99.99
2019-03-20T00:26:24.840Z,99.99
2019-03-20T00:27:24.810Z,99.99
2019-03-20T00:28:24.799Z,99.99
2019-03-20T00:29:24.791Z,99.99
2019-03-20T00:30:24.814Z,99.99
2019-03-20T00:31:24.797Z,99.99
2019-03-20T00:32:24.804Z,99.99
2019-03-20T00:33:24.757Z,99.99
2019-03-20T00:34:24.750Z,99.99
2019-03-20T00:35:24.740Z,99.99
2019-03-20T00:36:24.748Z,99.99
2019-03-20T00:37:24.717Z,99.99
2019-03-20T00:38:24.709Z,99.99
2019-03-20T00:39:24.700Z,99.99
2019-03-20T00:40:24.693Z,99.99
2019-03-20T00:41:24.708Z,99.99
2019-03-20T00:42:24.695Z,99.99
2019-03-20T00:43:24.660Z,99.99
2019-03-20T00:44:24.647Z,99.99
2019-03-20T00:45:24.640Z,99.99
2019-03-20T00:46:24.629Z,99.99
2019-03-20T00:47:24.625Z,99.99
2019-03-20T00:48:24.616Z,99.99
2019-03-20T00:49:24.601Z,99.99
2019-03-20T00:50:24.619Z,99.99
2019-03-20T00:51:24.593Z,99.99
2019-03-20T00:52:24.575Z,99.99
2019-03-20T00:53:24.565Z,99.99
2019-03-20T00:54:24.581Z,99.99
2019-03-20T00:55:24.547Z,99.99
2019-03-20T00:56:24.568Z,99.99
2019-03-20T00:57:24.530Z,99.99
2019-03-20T00:58:24.538Z,99.99
2019-03-20T00:59:24.526Z,99.99
2019-03-20T01:00:24.517Z,99.99
2019-03-20T01:01:24.519Z,99.99
2019-03-20T01:02:24.478Z,99.99
2019-03-20T01:03:24.472Z,99.99
2019-03-20T01:04:24.458Z,99.99
2019-03-20T01:05:24.477Z,99.99
2019-03-20T01:06:24.440Z,99.99
2019-03-20T01:07:24.436Z,99.99
2019-03-20T01:08:24.422Z,99.99
2019-03-20T01:09:24.416Z,99.99
2019-03-20T01:10:24.402Z,99.99
2019-03-20T01:11:24.392Z,99.99
2019-03-20T01:12:24.398Z,99.99
2019-03-20T01:13:24.388Z,99.99
2019-03-20T01:14:24.369Z,99.99
2019-03-20T01:15:24.358Z,99.99
2019-03-20T01:16:24.375Z,99.99
2019-03-20T01:17:24.337Z,99.99
2019-03-20T01:18:24.329Z,99.99
2019-03-20T01:19:24.410Z,99.99
2019-03-20T01:20:24.331Z,99.99
2019-03-20T01:21:24.325Z,99.99
2019-03-20T01:22:24.302Z,99.99
2019-03-20T01:23:24.279Z,99.99
2019-03-20T01:24:24.299Z,99.99
2019-03-20T01:25:24.269Z,99.99
2019-03-20T01:26:24.271Z,99.99
2019-03-20T01:27:24.240Z,99.99
2019-03-20T01:28:24.232Z,99.99
2019-03-20T01:29:24.218Z,99.99
2019-03-20T01:30:24.213Z,99.99
2019-03-20T01:31:24.204Z,99.99
2019-03-20T01:32:24.189Z,99.99
2019-03-20T01:33:24.193Z,99.99
2019-03-20T01:34:24.183Z,99.99
2019-03-20T01:35:24.322Z,99.99
2019-03-20T01:36:24.152Z,99.99
2019-03-20T01:37:24.143Z,99.99
2019-03-20T01:38:24.136Z,99.99
2019-03-20T01:39:24.128Z,99.99
2019-03-20T01:40:24.151Z,99.99
2019-03-20T01:41:24.101Z,99.99
2019-03-20T01:42:24.094Z,99.99
2019-03-20T01:43:24.094Z,99.99
2019-03-20T01:44:24.078Z,99.99
2019-03-20T01:45:24.087Z,99.99
2019-03-20T01:46:24.054Z,99.99
2019-03-20T01:47:24.048Z,99.99
2019-03-20T01:48:24.041Z,99.99
2019-03-20T01:49:24.058Z,99.99
2019-03-20T01:50:24.046Z,99.99
2019-03-20T01:51:24.010Z,99.99
2019-03-20T01:52:24.029Z,99.99
2019-03-20T01:53:23.987Z,99.99
2019-03-20T01:54:23.977Z,99.99
2019-03-20T01:55:23.968Z,99.99
2019-03-20T01:56:23.959Z,99.99
2019-03-20T01:57:23.980Z,99.99
2019-03-20T01:58:23.937Z,99.99
2019-03-20T01:59:23.925Z,99.99
2019-03-20T02:00:23.940Z,99.99
2019-03-20T02:01:23.908Z,99.99
2019-03-20T02:02:23.896Z,99.99
2019-03-20T02:03:23.886Z,99.99
2019-03-20T02:04:23.872Z,99.99
2019-03-20T02:05:34.679Z,99.99
2019-03-20T02:06:23.866Z,99.99
2019-03-20T02:07:23.840Z,99.99
2019-03-20T02:08:23.835Z,99.99
2019-03-20T02:09:23.821Z,99.99
2019-03-20T02:10:23.817Z,99.99
2019-03-20T02:11:23.804Z,99.99
2019-03-20T02:12:23.816Z,99.99
2019-03-20T02:13:23.782Z,99.99
2019-03-20T02:14:23.783Z,99.99
2019-03-20T02:15:23.767Z,99.99
2019-03-20T02:16:23.755Z,99.99
2019-03-20T02:17:23.744Z,99.99
2019-03-20T02:18:23.738Z,99.99
2019-03-20T02:19:23.724Z,99.99
2019-03-20T02:20:23.740Z,99.99
2019-03-20T02:21:23.706Z,99.99
2019-03-20T02:22:23.694Z,99.99
2019-03-20T02:23:23.683Z,99.99
2019-03-20T02:24:23.673Z,99.99
2019-03-20T02:25:23.663Z,99.99
2019-03-20T02:26:23.659Z,99.99
2019-03-20T02:27:23.644Z,99.99
2019-03-20T02:28:23.630Z,99.99
2019-03-20T02:29:23.644Z,99.99
2019-03-20T02:30:23.612Z,99.99
2019-03-20T02:31:23.606Z,99.99
2019-03-20T02:32:23.590Z,99.99
2019-03-20T02:33:23.603Z,99.99
2019-03-20T02:34:23.574Z,99.99
2019-03-20T02:35:23.558Z,99.99
2019-03-20T02:36:23.546Z,99.99
2019-03-20T02:37:23.536Z,99.99
2019-03-20T02:38:23.555Z,99.99
2019-03-20T02:39:23.535Z,99.99
2019-03-20T02:40:23.516Z,99.99
2019-03-20T02:41:23.507Z,99.99
2019-03-20T02:42:23.517Z,99.99
2019-03-20T02:43:23.496Z,99.99
2019-03-20T02:44:23.465Z,99.99
2019-03-20T02:45:23.459Z,99.99
2019-03-20T02:46:23.450Z,99.99
2019-03-20T02:47:23.439Z,99.99
2019-03-20T02:48:23.425Z,99.99
2019-03-20T02:49:23.423Z,99.99
2019-03-20T02:50:23.424Z,99.99
2019-03-20T02:51:23.395Z,99.99
2019-03-20T02:52:23.384Z,99.99
2019-03-20T02:53:23.377Z,99.99
2019-03-20T02:54:23.366Z,99.99
2019-03-20T02:55:23.370Z,99.99
2019-03-20T02:56:23.346Z,99.99
2019-03-20T02:57:23.336Z,99.99
2019-03-20T02:58:23.328Z,99.99
2019-03-20T02:59:23.315Z,99.99
2019-03-20T03:00:23.305Z,99.99
2019-03-20T03:01:23.293Z,99.99
2019-03-20T03:02:23.309Z,99.99
2019-03-20T03:03:23.307Z,99.99
2019-03-20T03:04:23.286Z,99.99
2019-03-20T03:05:23.246Z,99.99
2019-03-20T03:06:23.243Z,99.99
2019-03-20T03:07:23.228Z,99.99
2019-03-20T03:08:23.220Z,99.99
2019-03-20T03:09:23.216Z,99.99
2019-03-20T03:10:23.203Z,99.99
2019-03-20T03:11:23.189Z,99.99
2019-03-20T03:12:23.178Z,99.99
2019-03-20T03:13:23.166Z,99.99
2019-03-20T03:14:23.185Z,99.99
2019-03-20T03:15:23.184Z,99.99
2019-03-20T03:16:23.135Z,99.99
2019-03-20T03:17:23.124Z,99.99
2019-03-20T03:18:23.120Z,99.99
2019-03-20T03:19:23.140Z,99.99
2019-03-20T03:20:23.100Z,99.99
2019-03-20T03:21:23.089Z,99.99
2019-03-20T03:22:23.071Z,99.99
2019-03-20T03:23:23.059Z,99.99
2019-03-20T03:24:23.061Z,99.99
2019-03-20T03:25:23.037Z,99.99
2019-03-20T03:26:23.029Z,99.99
2019-03-20T03:27:23.022Z,99.99
2019-03-20T03:28:23.006Z,99.99
2019-03-20T03:29:22.994Z,99.99
2019-03-20T03:30:23.001Z,99.99
2019-03-20T03:31:22.977Z,99.99
2019-03-20T03:32:22.978Z,99.99
2019-03-20T03:33:22.967Z,99.99
2019-03-20T03:34:22.950Z,99.99
2019-03-20T03:35:22.957Z,99.99
2019-03-20T03:36:22.921Z,99.99
2019-03-20T03:37:22.914Z,99.99
2019-03-20T03:38:22.938Z,99.99
2019-03-20T03:39:22.903Z,99.99
2019-03-20T03:40:22.880Z,99.99
2019-03-20T03:41:22.878Z,99.99
2019-03-20T03:42:22.861Z,99.99
2019-03-20T03:43:24.414Z,99.99
2019-03-20T03:44:22.835Z,99.99
2019-03-20T03:45:22.826Z,99.99
2019-03-20T03:46:22.841Z,99.99
2019-03-20T03:47:22.818Z,99.99
2019-03-20T03:48:22.801Z,99.99
2019-03-20T03:49:22.788Z,99.99
2019-03-20T03:50:22.776Z,99.99
2019-03-20T03:51:22.761Z,99.99
2019-03-20T03:52:22.753Z,99.99
2019-03-20T03:53:22.749Z,99.99
2019-03-20T03:54:22.731Z,99.99
2019-03-20T03:55:22.736Z,99.99
2019-03-20T03:56:22.736Z,99.99
2019-03-20T03:57:22.703Z,99.99
2019-03-20T03:58:22.693Z,99.99
2019-03-20T03:59:22.682Z,99.99
2019-03-20T04:00:22.699Z,99.99
2019-03-20T04:01:22.685Z,99.99
2019-03-20T04:02:22.658Z,99.99
2019-03-20T04:03:22.664Z,99.99
2019-03-20T04:04:22.630Z,99.99
2019-03-20T04:05:22.622Z,99.99
2019-03-20T04:06:34.918Z,99.99
2019-03-20T04:07:23.749Z,99.99
2019-03-20T04:08:22.616Z,99.99
2019-03-20T04:09:22.573Z,99.99
2019-03-20T04:10:22.562Z,99.99
2019-03-20T04:11:22.550Z,99.99
2019-03-20T04:12:22.537Z,99.99
2019-03-20T04:13:22.528Z,99.99
2019-03-20T04:14:22.521Z,99.99
2019-03-20T04:15:22.519Z,99.99
2019-03-20T04:16:22.532Z,99.99
2019-03-20T04:17:22.489Z,99.99
2019-03-20T04:18:22.475Z,99.99
2019-03-20T04:19:22.464Z,99.99
2019-03-20T04:20:22.452Z,99.99
2019-03-20T04:21:22.446Z,99.99
2019-03-20T04:22:22.483Z,99.99
2019-03-20T04:23:22.423Z,99.99
2019-03-20T04:24:22.417Z,99.99
2019-03-20T04:25:22.396Z,99.99
2019-03-20T04:26:22.388Z,99.99
2019-03-20T04:27:22.378Z,99.99
2019-03-20T04:28:22.368Z,99.99
2019-03-20T04:29:22.366Z,99.99
2019-03-20T04:30:22.367Z,99.99
2019-03-20T04:31:22.353Z,99.99
2019-03-20T04:32:22.322Z,99.99
2019-03-20T04:33:22.309Z,99.99
2019-03-20T04:34:22.301Z,99.99
2019-03-20T04:35:22.290Z,99.99
2019-03-20T04:36:22.277Z,99.99
2019-03-20T04:37:22.291Z,99.99
2019-03-20T04:38:22.258Z,99.99
2019-03-20T04:39:22.250Z,99.99
2019-03-20T04:40:22.246Z,99.99
2019-03-20T04:41:22.252Z,99.99
2019-03-20T04:42:22.238Z,99.99
2019-03-20T04:43:22.208Z,99.99
2019-03-20T04:44:22.197Z,99.99
2019-03-20T04:45:22.191Z,99.99
2019-03-20T04:46:22.174Z,99.99
2019-03-20T04:47:22.164Z,99.99
2019-03-20T04:48:22.157Z,99.99
2019-03-20T04:49:22.170Z,99.99
2019-03-20T04:50:22.127Z,99.99
2019-03-20T04:51:22.119Z,99.99
2019-03-20T04:52:22.110Z,99.99
2019-03-20T04:53:22.106Z,99.99
2019-03-20T04:54:22.091Z,99.99
2019-03-20T04:55:24.030Z,99.99
2019-03-20T04:56:22.067Z,99.99
2019-03-20T04:57:22.057Z,99.99
2019-03-20T04:58:22.105Z,99.99
2019-03-20T04:59:22.070Z,99.99
2019-03-20T05:00:22.018Z,99.99
2019-03-20T05:01:22.034Z,99.99
2019-03-20T05:02:21.998Z,99.99
2019-03-20T05:03:21.987Z,99.99
2019-03-20T05:04:21.983Z,99.99
2019-03-20T05:05:21.972Z,99.99
2019-03-20T05:06:22.019Z,99.99
2019-03-20T05:07:21.981Z,99.99
2019-03-20T05:08:21.966Z,99.99
2019-03-20T05:09:22.037Z,99.99
2019-03-20T05:10:21.914Z,99.99
2019-03-20T05:11:21.900Z,99.99
2019-03-20T05:12:21.888Z,99.99
2019-03-20T05:13:21.887Z,99.99
2019-03-20T05:14:21.866Z,99.99
2019-03-20T05:15:21.865Z,99.99
2019-03-20T05:16:21.862Z,99.99
2019-03-20T05:17:21.829Z,99.99
2019-03-20T05:18:21.853Z,99.99
2019-03-20T05:19:21.819Z,99.99
2019-03-20T05:20:21.800Z,99.99
2019-03-20T05:21:21.798Z,99.99
2019-03-20T05:22:21.779Z,99.99
2019-03-20T05:23:21.781Z,99.99
2019-03-20T05:24:21.789Z,99.99
2019-03-20T05:25:21.780Z,99.99
2019-03-20T05:26:21.740Z,99.99
2019-03-20T05:27:21.729Z,99.99
2019-03-20T05:28:21.726Z,99.99
2019-03-20T05:29:21.707Z,99.99
2019-03-20T05:30:21.696Z,99.99
2019-03-20T05:31:21.722Z,99.99
2019-03-20T05:32:21.673Z,99.99
2019-03-20T05:33:21.679Z,99.99
2019-03-20T05:34:21.648Z,99.99
2019-03-20T05:35:21.664Z,99.99
2019-03-20T05:36:23.488Z,99.99
2019-03-20T05:37:21.619Z,99.99
2019-03-20T05:38:21.630Z,99.99
2019-03-20T05:39:21.595Z,99.99
2019-03-20T05:40:21.583Z,99.99
2019-03-20T05:41:21.577Z,99.99
2019-03-20T05:42:21.565Z,99.99
2019-03-20T05:43:21.554Z,99.99
2019-03-20T05:44:21.541Z,99.99
2019-03-20T05:45:21.536Z,99.99
2019-03-20T05:46:21.528Z,99.99
2019-03-20T05:47:21.511Z,99.99
2019-03-20T05:48:21.497Z,99.99
2019-03-20T05:49:21.493Z,99.99
2019-03-20T05:50:21.480Z,99.99
2019-03-20T05:51:21.487Z,99.99
2019-03-20T05:52:21.462Z,99.99
2019-03-20T05:53:21.472Z,99.99
2019-03-20T05:54:21.436Z,99.99
2019-03-20T05:55:21.428Z,99.99
2019-03-20T05:56:21.414Z,99.99
2019-03-20T05:57:21.402Z,99.99
2019-03-20T05:58:21.394Z,99.99
2019-03-20T05:59:21.398Z,99.99
2019-03-20T06:00:21.426Z,99.99
2019-03-20T06:01:21.359Z,99.99
2019-03-20T06:02:21.358Z,99.99
2019-03-20T06:03:21.338Z,99.99
2019-03-20T06:04:21.344Z,99.99
2019-03-20T06:05:21.334Z,99.99
2019-03-20T06:06:21.308Z,99.99
2019-03-20T06:07:22.053Z,99.99
2019-03-20T06:08:21.318Z,99.99
2019-03-20T06:09:21.277Z,99.99
2019-03-20T06:10:21.267Z,99.99
2019-03-20T06:11:21.255Z,99.99
2019-03-20T06:12:21.242Z,99.99
2019-03-20T06:13:21.232Z,99.99
2019-03-20T06:14:21.296Z,99.99
2019-03-20T06:15:21.216Z,99.99
2019-03-20T06:16:21.204Z,99.99
2019-03-20T06:17:21.198Z,99.99
2019-03-20T06:18:21.184Z,99.99
2019-03-20T06:19:21.180Z,99.99
2019-03-20T06:20:21.158Z,99.99
2019-03-20T06:21:21.163Z,99.99
2019-03-20T06:22:22.554Z,99.99
2019-03-20T06:23:21.132Z,99.99
2019-03-20T06:24:21.130Z,99.99
2019-03-20T06:25:21.687Z,99.99
2019-03-20T06:26:21.099Z,99.99
2019-03-20T06:27:21.093Z,99.99
2019-03-20T06:28:21.100Z,99.99
2019-03-20T06:29:21.074Z,99.99
2019-03-20T06:30:21.062Z,99.99
2019-03-20T06:31:21.045Z,99.99
2019-03-20T06:32:21.042Z,99.99
2019-03-20T06:33:21.024Z,99.99
2019-03-20T06:34:21.034Z,99.99
2019-03-20T06:35:21.036Z,99.99
2019-03-20T06:36:21.012Z,99.99
2019-03-20T06:37:20.994Z,99.99
2019-03-20T06:38:21.009Z,99.99
2019-03-20T06:39:20.969Z,99.99
2019-03-20T06:40:20.960Z,99.99
2019-03-20T06:41:20.950Z,99.99
2019-03-20T06:42:20.975Z,99.99
2019-03-20T06:43:20.950Z,99.99
2019-03-20T06:44:22.521Z,99.99
2019-03-20T06:45:20.910Z,99.99
2019-03-20T06:46:20.958Z,99.99
2019-03-20T06:47:20.892Z,99.99
2019-03-20T06:48:20.890Z,99.99
2019-03-20T06:49:20.896Z,99.99
2019-03-20T06:50:20.858Z,99.99
2019-03-20T06:51:20.867Z,99.99
2019-03-20T06:52:20.843Z,99.99
2019-03-20T06:53:20.833Z,98.50
2019-03-20T06:54:20.829Z,95.70
2019-03-20T06:55:20.826Z,91.28
2019-03-20T06:56:20.807Z,89.09
2019-03-20T06:57:20.800Z,87.04
2019-03-20T06:58:20.794Z,83.94
2019-03-20T06:59:20.797Z,82.37
2019-03-20T07:00:20.786Z,79.17
2019-03-20T07:01:20.781Z,76.03
2019-03-20T07:02:20.775Z,73.49
2019-03-20T07:03:20.772Z,71.77
2019-03-20T07:04:20.763Z,70.15
2019-03-20T07:05:20.758Z,69.71
2019-03-20T07:06:20.789Z,70.86
2019-03-20T07:07:22.535Z,69.93
2019-03-20T07:08:20.750Z,68.98
2019-03-20T07:09:20.746Z,67.87
2019-03-20T07:10:20.745Z,65.67
2019-03-20T07:11:20.747Z,62.24
2019-03-20T07:12:20.749Z,62.05
2019-03-20T07:13:20.746Z,62.43
2019-03-20T07:14:20.759Z,61.86
2019-03-20T07:15:20.741Z,64.05
2019-03-20T07:16:20.748Z,64.75
2019-03-20T07:17:20.734Z,62.68
2019-03-20T07:18:20.743Z,60.96
2019-03-20T07:19:20.738Z,60.30
2019-03-20T07:20:20.745Z,58.07
2019-03-20T07:21:20.739Z,58.64
2019-03-20T07:22:20.736Z,59.22
2019-03-20T07:23:20.747Z,59.59
2019-03-20T07:24:20.741Z,58.93
2019-03-20T07:25:20.756Z,58.64
2019-03-20T07:26:20.773Z,59.12
2019-03-20T07:27:20.748Z,60.55
2019-03-20T07:28:20.748Z,60.58
2019-03-20T07:29:20.766Z,60.04
2019-03-20T07:30:20.762Z,58.22
2019-03-20T07:31:20.764Z,58.92
2019-03-20T07:32:20.780Z,58.15
2019-03-20T07:33:20.787Z,57.80
2019-03-20T07:34:20.785Z,52.73
2019-03-20T07:35:20.775Z,51.29
2019-03-20T07:36:20.801Z,51.77
2019-03-20T07:37:20.778Z,51.87
2019-03-20T07:38:20.782Z,52.22
2019-03-20T07:39:20.825Z,52.03
2019-03-20T07:40:20.845Z,52.70
2019-03-20T07:41:20.820Z,54.55
2019-03-20T07:42:20.800Z,54.16
2019-03-20T07:43:20.806Z,54.23
2019-03-20T07:44:20.811Z,54.71
2019-03-20T07:45:20.812Z,54.39
2019-03-20T07:46:20.846Z,54.33
2019-03-20T07:47:20.822Z,54.74
2019-03-20T07:48:22.442Z,51.87
2019-03-20T07:49:20.836Z,53.04
2019-03-20T07:50:20.872Z,52.56
2019-03-20T07:51:20.866Z,53.04
2019-03-20T07:52:20.886Z,53.62
2019-03-20T07:53:20.858Z,54.19
2019-03-20T07:54:20.860Z,53.55
2019-03-20T07:55:20.870Z,52.81
2019-03-20T07:56:20.876Z,50.89
2019-03-20T07:57:20.886Z,48.97
2019-03-20T07:58:20.886Z,49.69
2019-03-20T07:59:20.895Z,50.56
2019-03-20T08:00:20.903Z,49.41
2019-03-20T08:01:21.199Z,47.58
2019-03-20T08:02:21.206Z,47.39
2019-03-20T08:03:21.026Z,47.68
2019-03-20T08:04:20.924Z,47.77
2019-03-20T08:05:28.690Z,48.85
2019-03-20T08:06:20.940Z,46.77
2019-03-20T08:07:20.945Z,44.77
2019-03-20T08:08:20.958Z,44.10
2019-03-20T08:09:20.987Z,43.88
2019-03-20T08:10:20.972Z,44.23
2019-03-20T08:11:20.975Z,47.10
2019-03-20T08:12:20.989Z,46.94
2019-03-20T08:13:20.984Z,45.59
2019-03-20T08:14:20.994Z,47.05
2019-03-20T08:15:21.020Z,46.98
2019-03-20T08:16:21.029Z,44.48
2019-03-20T08:17:21.027Z,44.79
2019-03-20T08:18:21.028Z,42.83
2019-03-20T08:19:21.043Z,43.98
2019-03-20T08:20:21.060Z,44.00
2019-03-20T08:21:21.076Z,43.71
2019-03-20T08:22:21.062Z,43.21
2019-03-20T08:23:21.066Z,43.96
2019-03-20T08:24:21.113Z,44.54
2019-03-20T08:25:21.083Z,45.68
2019-03-20T08:26:21.094Z,45.90
2019-03-20T08:27:21.106Z,44.77
2019-03-20T08:28:21.110Z,44.10
2019-03-20T08:29:21.121Z,42.71
2019-03-20T08:30:21.133Z,43.57
2019-03-20T08:31:21.172Z,44.65
2019-03-20T08:32:21.149Z,44.75
2019-03-20T08:33:21.156Z,43.91
2019-03-20T08:34:21.167Z,42.97
2019-03-20T08:35:21.199Z,43.14
2019-03-20T08:36:21.189Z,43.17
2019-03-20T08:37:21.194Z,44.92
2019-03-20T08:38:21.205Z,45.01
2019-03-20T08:39:21.214Z,44.82
2019-03-20T08:40:21.221Z,44.94
2019-03-20T08:41:21.248Z,44.08
2019-03-20T08:42:21.245Z,44.15
2019-03-20T08:43:21.255Z,44.54
2019-03-20T08:44:21.262Z,44.32
2019-03-20T08:45:21.273Z,45.57
2019-03-20T08:46:21.283Z,43.94
2019-03-20T08:47:21.310Z,44.70
2019-03-20T08:48:21.303Z,44.23
2019-03-20T08:49:21.328Z,46.05
2019-03-20T08:50:21.327Z,46.07
2019-03-20T08:51:21.334Z,46.21
2019-03-20T08:52:21.342Z,46.04
2019-03-20T08:53:21.356Z,43.35
2019-03-20T08:54:21.364Z,42.77
2019-03-20T08:55:21.393Z,42.94
2019-03-20T08:56:21.387Z,43.29
2019-03-20T08:57:21.398Z,45.09
2019-03-20T08:58:21.436Z,45.59
2019-03-20T08:59:21.428Z,46.94
2019-03-20T09:00:21.429Z,49.02
2019-03-20T09:01:28.631Z,50.00
2019-03-20T09:02:21.451Z,49.93
2019-03-20T09:03:21.464Z,49.67
2019-03-20T09:04:21.478Z,47.58
2019-03-20T09:05:21.511Z,46.91
2019-03-20T09:06:21.499Z,46.55
2019-03-20T09:07:21.511Z,46.19
2019-03-20T09:08:29.484Z,47.36
2019-03-20T09:09:21.529Z,44.87
2019-03-20T09:10:21.541Z,44.56
2019-03-20T09:11:21.576Z,43.70
2019-03-20T09:12:21.566Z,45.25
2019-03-20T09:13:21.573Z,45.66
2019-03-20T09:14:21.585Z,44.29
2019-03-20T09:15:21.598Z,44.13
2019-03-20T09:16:21.612Z,45.21
2019-03-20T09:17:21.623Z,45.95
2019-03-20T09:18:21.638Z,46.43
2019-03-20T09:19:21.649Z,48.76
2019-03-20T09:20:21.660Z,46.84
2019-03-20T09:21:21.671Z,46.96
2019-03-20T09:22:21.682Z,46.96
2019-03-20T09:23:21.694Z,45.71
2019-03-20T09:24:21.705Z,45.68
2019-03-20T09:25:21.728Z,46.34
2019-03-20T09:26:21.730Z,48.07
2019-03-20T09:27:21.747Z,48.49
2019-03-20T09:28:21.771Z,49.24
2019-03-20T09:29:21.788Z,51.44
2019-03-20T09:30:21.791Z,50.96
2019-03-20T09:31:21.795Z,50.77
2019-03-20T09:32:21.802Z,50.03
2019-03-20T09:33:21.820Z,50.12
2019-03-20T09:34:21.830Z,49.93
2019-03-20T09:35:21.844Z,50.15
2019-03-20T09:36:21.872Z,48.13
2019-03-20T09:37:21.891Z,48.88
2019-03-20T09:38:21.880Z,49.45
2019-03-20T09:39:21.902Z,48.35
2019-03-20T09:40:23.566Z,50.36
2019-03-20T09:41:21.918Z,50.24
2019-03-20T09:42:21.930Z,51.27
2019-03-20T09:43:21.944Z,52.99
2019-03-20T09:44:21.957Z,55.00
2019-03-20T09:45:21.973Z,54.64
2019-03-20T09:46:21.986Z,52.54
2019-03-20T09:47:21.994Z,52.03
2019-03-20T09:48:22.031Z,52.99
2019-03-20T09:49:22.021Z,54.36
2019-03-20T09:50:22.040Z,53.30
2019-03-20T09:51:22.052Z,51.97
2019-03-20T09:52:22.063Z,53.02
2019-03-20T09:53:22.076Z,52.03
2019-03-20T09:54:22.089Z,54.55
2019-03-20T09:55:22.105Z,52.87
2019-03-20T09:56:22.115Z,53.22
2019-03-20T09:57:22.129Z,55.04
2019-03-20T09:58:22.142Z,55.52
2019-03-20T09:59:22.157Z,55.32
2019-03-20T10:00:22.170Z,56.12
2019-03-20T10:01:22.179Z,54.30
2019-03-20T10:02:22.197Z,54.43
2019-03-20T10:03:22.209Z,55.51
2019-03-20T10:04:22.220Z,53.85
2019-03-20T10:05:22.235Z,53.37
2019-03-20T10:06:22.299Z,55.29
2019-03-20T10:07:22.278Z,54.49
2019-03-20T10:08:22.274Z,54.39
2019-03-20T10:09:22.285Z,55.45
2019-03-20T10:10:22.300Z,55.23
2019-03-20T10:11:22.310Z,55.99
2019-03-20T10:12:22.323Z,56.85
2019-03-20T10:13:22.331Z,55.35
2019-03-20T10:14:22.346Z,54.66
2019-03-20T10:15:22.355Z,55.04
2019-03-20T10:16:22.385Z,55.71
2019-03-20T10:17:22.393Z,55.52
2019-03-20T10:18:22.385Z,55.42
2019-03-20T10:19:22.411Z,55.01
2019-03-20T10:20:22.404Z,56.06
2019-03-20T10:21:22.412Z,57.31
2019-03-20T10:22:22.445Z,58.19
2019-03-20T10:23:22.429Z,57.59
2019-03-20T10:24:22.434Z,56.92
2019-03-20T10:25:22.482Z,56.45
2019-03-20T10:26:22.454Z,57.71
2019-03-20T10:27:22.473Z,57.62
2019-03-20T10:28:22.460Z,55.13
2019-03-20T10:29:22.467Z,53.34
2019-03-20T10:30:22.474Z,54.68
2019-03-20T10:31:22.480Z,55.38
2019-03-20T10:32:22.491Z,53.16
2019-03-20T10:33:22.498Z,51.81
2019-03-20T10:34:22.504Z,52.70
2019-03-20T10:35:22.503Z,52.99
2019-03-20T10:36:22.508Z,54.33
2019-03-20T10:37:22.516Z,53.85
2019-03-20T10:38:22.520Z,53.37
2019-03-20T10:39:22.523Z,52.61
2019-03-20T10:40:22.548Z,51.93
2019-03-20T10:41:22.538Z,51.93
2019-03-20T10:42:22.541Z,50.95
2019-03-20T10:43:22.548Z,51.34
2019-03-20T10:44:22.576Z,52.10
2019-03-20T10:45:22.555Z,53.25
2019-03-20T10:46:22.598Z,54.02
2019-03-20T10:47:22.566Z,53.44
2019-03-20T10:48:22.573Z,52.67
2019-03-20T10:49:22.576Z,52.08
2019-03-20T10:50:22.580Z,52.84
2019-03-20T10:51:22.583Z,52.46
2019-03-20T10:52:22.591Z,52.94
2019-03-20T10:53:22.593Z,53.63
2019-03-20T10:54:22.639Z,51.79
2019-03-20T10:55:22.600Z,52.08
2019-03-20T10:56:22.605Z,51.81
2019-03-20T10:57:22.608Z,51.12
2019-03-20T10:58:22.616Z,51.09
2019-03-20T10:59:22.629Z,52.08
2019-03-20T11:00:22.620Z,54.47
2019-03-20T11:01:22.629Z,54.11
2019-03-20T11:02:22.655Z,54.90
2019-03-20T11:03:22.659Z,54.61
2019-03-20T11:04:22.652Z,52.25
2019-03-20T11:05:22.638Z,51.39
2019-03-20T11:06:22.679Z,51.32
2019-03-20T11:07:22.673Z,51.32
2019-03-20T11:08:22.677Z,51.22
2019-03-20T11:09:22.654Z,50.93
2019-03-20T11:10:22.656Z,49.88
2019-03-20T11:11:26.921Z,49.60
2019-03-20T11:12:22.667Z,48.64
2019-03-20T11:13:22.670Z,48.54
2019-03-20T11:14:22.673Z,48.64
2019-03-20T11:15:22.681Z,48.71
2019-03-20T11:16:22.686Z,47.75
2019-03-20T11:17:22.710Z,50.24
2019-03-20T11:18:22.711Z,50.34
2019-03-20T11:19:22.705Z,49.35
2019-03-20T11:20:22.716Z,49.43
2019-03-20T11:21:22.723Z,49.71
2019-03-20T11:22:22.726Z,50.55
2019-03-20T11:23:22.723Z,51.62
2019-03-20T11:24:22.728Z,52.20
2019-03-20T11:25:22.731Z,54.39
2019-03-20T11:26:22.720Z,53.37
2019-03-20T11:27:22.720Z,51.75
2019-03-20T11:28:22.732Z,51.84
2019-03-20T11:29:22.728Z,51.97
2019-03-20T11:30:22.733Z,51.20
2019-03-20T11:31:22.741Z,50.72
2019-03-20T11:32:22.738Z,51.29
2019-03-20T11:33:22.743Z,50.89
2019-03-20T11:34:22.769Z,49.07
2019-03-20T11:35:22.758Z,48.28
2019-03-20T11:36:22.749Z,48.57
2019-03-20T11:37:22.759Z,49.23
2019-03-20T11:38:22.787Z,48.97
2019-03-20T11:39:29.596Z,49.07
2019-03-20T11:40:22.773Z,49.23
2019-03-20T11:41:22.770Z,49.71
2019-03-20T11:42:22.799Z,50.79
2019-03-20T11:43:22.839Z,50.89
2019-03-20T11:44:22.778Z,48.95
2019-03-20T11:45:23.646Z,48.85
2019-03-20T11:46:22.788Z,49.14
2019-03-20T11:47:22.786Z,49.23
2019-03-20T11:48:22.791Z,50.09
2019-03-20T11:49:24.579Z,49.78
2019-03-20T11:50:22.799Z,50.26
2019-03-20T11:51:22.826Z,51.21
2019-03-20T11:52:22.804Z,51.89
2019-03-20T11:53:22.827Z,51.67
2019-03-20T11:54:22.835Z,51.17
2019-03-20T11:55:22.815Z,51.76
2019-03-20T11:56:22.829Z,51.76
2019-03-20T11:57:22.823Z,51.57
2019-03-20T11:58:22.819Z,52.36
2019-03-20T11:59:22.845Z,53.22
2019-03-20T12:00:22.828Z,53.44
2019-03-20T12:01:22.843Z,51.75
2019-03-20T12:02:27.976Z,50.60
2019-03-20T12:03:22.830Z,49.45
2019-03-20T12:04:22.866Z,48.97
2019-03-20T12:05:22.849Z,49.52
2019-03-20T12:06:22.856Z,50.00
2019-03-20T12:07:22.840Z,50.00
2019-03-20T12:08:22.873Z,49.71
2019-03-20T12:09:22.844Z,49.23
2019-03-20T12:10:22.850Z,49.78
2019-03-20T12:11:22.861Z,50.74
2019-03-20T12:12:22.850Z,50.86
2019-03-20T12:13:22.896Z,51.15
2019-03-20T12:14:22.853Z,50.57
2019-03-20T12:15:22.939Z,50.67
2019-03-20T12:16:22.862Z,50.67
2019-03-20T12:17:22.869Z,51.34
2019-03-20T12:18:22.921Z,49.90
2019-03-20T12:19:22.871Z,50.12
2019-03-20T12:20:22.892Z,50.89
2019-03-20T12:21:22.900Z,51.20
2019-03-20T12:22:22.886Z,49.57
2019-03-20T12:23:22.881Z,50.98
2019-03-20T12:24:22.879Z,49.71
2019-03-20T12:25:22.890Z,50.45
2019-03-20T12:26:22.928Z,52.46
2019-03-20T12:27:22.887Z,53.41
2019-03-20T12:28:22.937Z,52.46
2019-03-20T12:29:22.893Z,54.37
2019-03-20T12:30:22.895Z,54.94
2019-03-20T12:31:22.915Z,54.78
2019-03-20T12:32:22.911Z,54.56
2019-03-20T12:33:22.929Z,54.47
2019-03-20T12:34:22.937Z,54.49
2019-03-20T12:35:22.906Z,54.97
2019-03-20T12:36:22.915Z,54.37
2019-03-20T12:37:22.913Z,54.49
2019-03-20T12:38:22.913Z,53.82
2019-03-20T12:39:22.913Z,53.92
2019-03-20T12:40:22.920Z,53.56
2019-03-20T12:41:22.918Z,52.32
2019-03-20T12:42:22.920Z,51.65
2019-03-20T12:43:22.922Z,51.17
2019-03-20T12:44:22.927Z,51.27
2019-03-20T12:45:22.938Z,50.79
2019-03-20T12:46:22.937Z,50.12
2019-03-20T12:47:22.934Z,49.74
2019-03-20T12:48:22.937Z,48.88
2019-03-20T12:49:22.937Z,50.41
2019-03-20T12:50:22.937Z,50.02
2019-03-20T12:51:22.997Z,50.95
2019-03-20T12:52:22.943Z,51.15